sensor_id;sensor_type;location;lat;lon;timestamp;pressure;altitude;pressure_sealevel;temperature;humidity
70954;BME280;58618;47.490;8.736;2023-09-19T00:02:26;96431.13;;;16.06;100.00
70954;BME280;58618;47.490;8.736;2023-09-19T00:05:15;96428.53;;;16.06;100.00
70954;BME280;58618;47.490;8.736;2023-09-19T00:08:03;96432.94;;;16.14;100.00
70954;BME280;58618;47.490;8.736;2023-09-19T00:10:50;96432.50;;;16.03;100.00
70954;BME280;58618;47.490;8.736;2023-09-19T00:13:38;96436.94;;;16.03;100.00
70954;BME280;58618;47.490;8.736;2023-09-19T00:16:25;96432.22;;;16.05;100.00
70954;BME280;58618;47.490;8.736;2023-09-19T00:19:14;96435.88;;;16.04;100.00
70954;BME280;58618;47.490;8.736;2023-09-19T00:22:02;96442.47;;;15.93;100.00
70954;BME280;58618;47.490;8.736;2023-09-19T00:24:50;96435.91;;;15.95;100.00
70954;BME280;58618;47.490;8.736;2023-09-19T00:27:38;96442.91;;;15.86;100.00
70954;BME280;58618;47.490;8.736;2023-09-19T00:30:27;96440.03;;;15.88;100.00
70954;BME280;58618;47.490;8.736;2023-09-19T00:33:15;96439.41;;;15.91;100.00
70954;BME280;58618;47.490;8.736;2023-09-19T00:36:04;96438.03;;;16.02;100.00
70954;BME280;58618;47.490;8.736;2023-09-19T00:38:51;96450.91;;;15.90;100.00
70954;BME280;58618;47.490;8.736;2023-09-19T00:41:39;96445.22;;;15.88;100.00
70954;BME280;58618;47.490;8.736;2023-09-19T00:44:26;96443.69;;;15.87;100.00
70954;BME280;58618;47.490;8.736;2023-09-19T00:47:14;96444.94;;;15.81;100.00
70954;BME280;58618;47.490;8.736;2023-09-19T00:50:04;96444.94;;;15.81;100.00
70954;BME280;58618;47.490;8.736;2023-09-19T00:52:55;96445.84;;;15.68;100.00
70954;BME280;58618;47.490;8.736;2023-09-19T00:55:43;96442.78;;;15.66;100.00
70954;BME280;58618;47.490;8.736;2023-09-19T00:58:31;96440.03;;;15.53;100.00
70954;BME280;58618;47.490;8.736;2023-09-19T01:01:20;96446.75;;;15.54;100.00
70954;BME280;58618;47.490;8.736;2023-09-19T01:04:08;96446.75;;;15.54;100.00
70954;BME280;58618;47.490;8.736;2023-09-19T01:06:55;96446.75;;;15.54;100.00
70954;BME280;58618;47.490;8.736;2023-09-19T01:09:45;96442.75;;;15.48;100.00
70954;BME280;58618;47.490;8.736;2023-09-19T01:12:39;96447.63;;;15.41;100.00
70954;BME280;58618;47.490;8.736;2023-09-19T01:15:49;96458.03;;;15.41;100.00
70954;BME280;58618;47.490;8.736;2023-09-19T01:18:43;96457.09;;;15.37;100.00
70954;BME280;58618;47.490;8.736;2023-09-19T01:21:42;96464.28;;;15.32;100.00
70954;BME280;58618;47.490;8.736;2023-09-19T01:25:07;96465.63;;;15.29;100.00
70954;BME280;58618;47.490;8.736;2023-09-19T01:28:08;96476.34;;;15.28;100.00
70954;BME280;58618;47.490;8.736;2023-09-19T01:31:02;96479.09;;;15.31;100.00
70954;BME280;58618;47.490;8.736;2023-09-19T01:33:54;96472.38;;;15.30;100.00
70954;BME280;58618;47.490;8.736;2023-09-19T01:36:43;96477.09;;;15.28;100.00
70954;BME280;58618;47.490;8.736;2023-09-19T01:39:31;96477.22;;;15.23;100.00
70954;BME280;58618;47.490;8.736;2023-09-19T01:42:24;96474.19;;;15.21;100.00
70954;BME280;58618;47.490;8.736;2023-09-19T01:45:23;96470.69;;;15.26;100.00
70954;BME280;58618;47.490;8.736;2023-09-19T01:48:25;96470.06;;;15.29;100.00
70954;BME280;58618;47.490;8.736;2023-09-19T01:51:22;96464.38;;;15.18;100.00
70954;BME280;58618;47.490;8.736;2023-09-19T01:54:18;96472.16;;;15.09;100.00
70954;BME280;58618;47.490;8.736;2023-09-19T01:57:20;96464.94;;;14.98;100.00
70954;BME280;58618;47.490;8.736;2023-09-19T02:00:11;96469.69;;;14.96;100.00
70954;BME280;58618;47.490;8.736;2023-09-19T02:02:59;96471.94;;;14.89;100.00
70954;BME280;58618;47.490;8.736;2023-09-19T02:05:49;96472.22;;;14.78;100.00
70954;BME280;58618;47.490;8.736;2023-09-19T02:08:37;96471.59;;;14.82;100.00
70954;BME280;58618;47.490;8.736;2023-09-19T02:11:25;96470.19;;;14.75;100.00
70954;BME280;58618;47.490;8.736;2023-09-19T02:14:12;96472.63;;;14.72;100.00
70954;BME280;58618;47.490;8.736;2023-09-19T02:17:01;96477.41;;;14.78;100.00
70954;BME280;58618;47.490;8.736;2023-09-19T02:19:48;96478.94;;;14.79;100.00
70954;BME280;58618;47.490;8.736;2023-09-19T02:22:37;96483.00;;;14.72;100.00
70954;BME280;58618;47.490;8.736;2023-09-19T02:25:25;96478.94;;;14.79;100.00
70954;BME280;58618;47.490;8.736;2023-09-19T02:28:12;96494.66;;;14.74;100.00
70954;BME280;58618;47.490;8.736;2023-09-19T02:31:00;96488.38;;;14.75;100.00
70954;BME280;58618;47.490;8.736;2023-09-19T02:33:47;96487.31;;;14.76;100.00
70954;BME280;58618;47.490;8.736;2023-09-19T02:36:35;96501.06;;;14.77;100.00
70954;BME280;58618;47.490;8.736;2023-09-19T02:39:23;96490.25;;;14.84;100.00
70954;BME280;58618;47.490;8.736;2023-09-19T02:42:11;96494.84;;;14.87;100.00
70954;BME280;58618;47.490;8.736;2023-09-19T02:44:58;96498.06;;;14.92;100.00
70954;BME280;58618;47.490;8.736;2023-09-19T02:47:47;96497.31;;;14.92;100.00
70954;BME280;58618;47.490;8.736;2023-09-19T02:50:34;96498.84;;;14.93;100.00
70954;BME280;58618;47.490;8.736;2023-09-19T02:53:21;96501.91;;;14.95;100.00
70954;BME280;58618;47.490;8.736;2023-09-19T02:56:11;96491.97;;;14.97;100.00
70954;BME280;58618;47.490;8.736;2023-09-19T02:58:59;96501.81;;;15.08;100.00
70954;BME280;58618;47.490;8.736;2023-09-19T03:01:47;96495.84;;;15.08;100.00
70954;BME280;58618;47.490;8.736;2023-09-19T03:04:35;96489.72;;;15.04;100.00
70954;BME280;58618;47.490;8.736;2023-09-19T03:07:23;96477.97;;;15.06;100.00
70954;BME280;58618;47.490;8.736;2023-09-19T03:10:11;96478.56;;;15.03;100.00
70954;BME280;58618;47.490;8.736;2023-09-19T03:12:59;96477.47;;;14.96;100.00
70954;BME280;58618;47.490;8.736;2023-09-19T03:15:47;96480.94;;;14.91;100.00
70954;BME280;58618;47.490;8.736;2023-09-19T03:18:36;96493.13;;;14.82;100.00
70954;BME280;58618;47.490;8.736;2023-09-19T03:21:24;96490.97;;;14.75;100.00
70954;BME280;58618;47.490;8.736;2023-09-19T03:24:11;96480.28;;;14.77;100.00
70954;BME280;58618;47.490;8.736;2023-09-19T03:26:59;96474.25;;;14.59;100.00
70954;BME280;58618;47.490;8.736;2023-09-19T03:29:47;96486.66;;;14.71;100.00
70954;BME280;58618;47.490;8.736;2023-09-19T03:32:35;96491.06;;;14.62;100.00
70954;BME280;58618;47.490;8.736;2023-09-19T03:35:23;96484.41;;;14.69;100.00
70954;BME280;58618;47.490;8.736;2023-09-19T03:38:10;96487.63;;;14.75;100.00
70954;BME280;58618;47.490;8.736;2023-09-19T03:40:57;96488.38;;;14.75;100.00
70954;BME280;58618;47.490;8.736;2023-09-19T03:43:45;96481.19;;;14.72;100.00
70954;BME280;58618;47.490;8.736;2023-09-19T03:46:33;96487.78;;;14.78;100.00
70954;BME280;58618;47.490;8.736;2023-09-19T03:49:22;96491.53;;;14.95;100.00
70954;BME280;58618;47.490;8.736;2023-09-19T03:52:09;96488.28;;;14.89;100.00
70954;BME280;58618;47.490;8.736;2023-09-19T03:54:57;96489.38;;;14.97;100.00
70954;BME280;58618;47.490;8.736;2023-09-19T03:57:48;96478.19;;;14.88;100.00
70954;BME280;58618;47.490;8.736;2023-09-19T04:00:35;96477.13;;;14.89;100.00
70954;BME280;58618;47.490;8.736;2023-09-19T04:03:23;96479.72;;;14.89;100.00
70954;BME280;58618;47.490;8.736;2023-09-19T04:06:20;96483.38;;;14.88;100.00
70954;BME280;58618;47.490;8.736;2023-09-19T04:09:07;96489.06;;;14.90;100.00
70954;BME280;58618;47.490;8.736;2023-09-19T04:11:55;96482.81;;;14.91;100.00
70954;BME280;58618;47.490;8.736;2023-09-19T04:14:42;96490.59;;;14.91;100.00
70954;BME280;58618;47.490;8.736;2023-09-19T04:17:30;96488.31;;;14.98;100.00
70954;BME280;58618;47.490;8.736;2023-09-19T04:20:20;96483.88;;;14.90;100.00
70954;BME280;58618;47.490;8.736;2023-09-19T04:23:09;96488.59;;;14.88;100.00
70954;BME280;58618;47.490;8.736;2023-09-19T04:25:56;96494.00;;;15.00;100.00
70954;BME280;58618;47.490;8.736;2023-09-19T04:28:43;96504.81;;;15.02;100.00
70954;BME280;58618;47.490;8.736;2023-09-19T04:31:32;96501.91;;;14.95;100.00
70954;BME280;58618;47.490;8.736;2023-09-19T04:34:19;96502.84;;;14.99;100.00
70954;BME280;58618;47.490;8.736;2023-09-19T04:37:07;96509.00;;;15.11;100.00
70954;BME280;58618;47.490;8.736;2023-09-19T04:39:55;96508.50;;;15.01;100.00
70954;BME280;58618;47.490;8.736;2023-09-19T04:42:42;96505.91;;;15.01;100.00
70954;BME280;58618;47.490;8.736;2023-09-19T04:45:29;96509.16;;;15.06;100.00
70954;BME280;58618;47.490;8.736;2023-09-19T04:48:17;96514.84;;;15.17;100.00
70954;BME280;58618;47.490;8.736;2023-09-19T04:51:05;96515.41;;;15.14;100.00
70954;BME280;58618;47.490;8.736;2023-09-19T04:53:54;96504.88;;;15.10;100.00
70954;BME280;58618;47.490;8.736;2023-09-19T04:56:41;96519.84;;;15.13;100.00
70954;BME280;58618;47.490;8.736;2023-09-19T04:59:29;96520.53;;;14.97;100.00
70954;BME280;58618;47.490;8.736;2023-09-19T05:02:17;96532.16;;;14.91;100.00
70954;BME280;58618;47.490;8.736;2023-09-19T05:05:05;96535.03;;;14.89;100.00
70954;BME280;58618;47.490;8.736;2023-09-19T05:07:54;96537.16;;;14.87;100.00
70954;BME280;58618;47.490;8.736;2023-09-19T05:10:43;96538.84;;;14.92;100.00
70954;BME280;58618;47.490;8.736;2023-09-19T05:13:30;96541.06;;;15.07;100.00
70954;BME280;58618;47.490;8.736;2023-09-19T05:16:18;96541.69;;;15.04;100.00
70954;BME280;58618;47.490;8.736;2023-09-19T05:19:05;96546.03;;;15.17;100.00
70954;BME280;58618;47.490;8.736;2023-09-19T05:21:52;96551.34;;;15.12;100.00
70954;BME280;58618;47.490;8.736;2023-09-19T05:24:41;96548.38;;;15.36;100.00
70954;BME280;58618;47.490;8.736;2023-09-19T05:27:30;96552.47;;;15.28;100.00
70954;BME280;58618;47.490;8.736;2023-09-19T05:30:17;96550.94;;;15.27;100.00
70954;BME280;58618;47.490;8.736;2023-09-19T05:33:06;96561.97;;;15.33;100.00
70954;BME280;58618;47.490;8.736;2023-09-19T05:35:54;96560.66;;;15.44;100.00
70954;BME280;58618;47.490;8.736;2023-09-19T05:38:42;96564.13;;;15.39;100.00
70954;BME280;58618;47.490;8.736;2023-09-19T05:41:30;96565.22;;;15.38;100.00
70954;BME280;58618;47.490;8.736;2023-09-19T05:44:19;96563.19;;;15.35;100.00
70954;BME280;58618;47.490;8.736;2023-09-19T05:47:06;96576.25;;;15.44;100.00
70954;BME280;58618;47.490;8.736;2023-09-19T05:49:55;96584.09;;;15.52;100.00
70954;BME280;58618;47.490;8.736;2023-09-19T05:52:42;96577.09;;;15.70;100.00
70954;BME280;58618;47.490;8.736;2023-09-19T05:55:30;96587.06;;;15.85;100.00
70954;BME280;58618;47.490;8.736;2023-09-19T05:58:17;96582.34;;;15.96;100.00
70954;BME280;58618;47.490;8.736;2023-09-19T06:01:07;96587.25;;;16.06;100.00
70954;BME280;58618;47.490;8.736;2023-09-19T06:03:55;96584.81;;;16.18;100.00
70954;BME280;58618;47.490;8.736;2023-09-19T06:06:43;96586.19;;;16.16;100.00
70954;BME280;58618;47.490;8.736;2023-09-19T06:09:30;96588.94;;;16.36;100.00
70954;BME280;58618;47.490;8.736;2023-09-19T06:12:18;96591.28;;;16.64;100.00
70954;BME280;58618;47.490;8.736;2023-09-19T06:15:06;96596.25;;;17.03;100.00
70954;BME280;58618;47.490;8.736;2023-09-19T06:17:56;96602.75;;;18.02;100.00
70954;BME280;58618;47.490;8.736;2023-09-19T06:20:43;96600.03;;;17.61;100.00
70954;BME280;58618;47.490;8.736;2023-09-19T06:23:31;96606.63;;;17.67;100.00
70954;BME280;58618;47.490;8.736;2023-09-19T06:26:18;96611.06;;;17.96;100.00
70954;BME280;58618;47.490;8.736;2023-09-19T06:29:05;96602.38;;;18.12;100.00
70954;BME280;58618;47.490;8.736;2023-09-19T06:31:53;96609.44;;;18.74;100.00
70954;BME280;58618;47.490;8.736;2023-09-19T06:34:42;96612.88;;;19.93;100.00
70954;BME280;58618;47.490;8.736;2023-09-19T06:37:29;96596.75;;;21.14;100.00
70954;BME280;58618;47.490;8.736;2023-09-19T06:40:17;96604.63;;;21.61;100.00
70954;BME280;58618;47.490;8.736;2023-09-19T06:43:05;96601.66;;;21.16;100.00
70954;BME280;58618;47.490;8.736;2023-09-19T06:45:53;96608.91;;;20.35;100.00
70954;BME280;58618;47.490;8.736;2023-09-19T06:48:42;96604.50;;;20.39;100.00
70954;BME280;58618;47.490;8.736;2023-09-19T06:51:31;96611.66;;;20.02;100.00
70954;BME280;58618;47.490;8.736;2023-09-19T06:54:18;96610.41;;;20.92;100.00
70954;BME280;58618;47.490;8.736;2023-09-19T06:57:06;96610.16;;;21.40;100.00
70954;BME280;58618;47.490;8.736;2023-09-19T06:59:55;96629.56;;;21.08;100.00
70954;BME280;58618;47.490;8.736;2023-09-19T07:02:43;96624.84;;;21.76;100.00
70954;BME280;58618;47.490;8.736;2023-09-19T07:05:31;96626.91;;;21.52;100.00
70954;BME280;58618;47.490;8.736;2023-09-19T07:08:19;96632.13;;;20.37;100.00
70954;BME280;58618;47.490;8.736;2023-09-19T07:11:07;96636.41;;;20.05;100.00
70954;BME280;58618;47.490;8.736;2023-09-19T07:13:54;96635.22;;;19.54;100.00
70954;BME280;58618;47.490;8.736;2023-09-19T07:16:41;96644.25;;;19.44;100.00
70954;BME280;58618;47.490;8.736;2023-09-19T07:19:31;96631.06;;;18.95;100.00
70954;BME280;58618;47.490;8.736;2023-09-19T07:22:18;96632.06;;;18.70;100.00
70954;BME280;58618;47.490;8.736;2023-09-19T07:25:07;96633.13;;;18.90;100.00
70954;BME280;58618;47.490;8.736;2023-09-19T07:27:55;96639.38;;;19.10;100.00
70954;BME280;58618;47.490;8.736;2023-09-19T07:30:42;96641.56;;;19.08;100.00
70954;BME280;58618;47.490;8.736;2023-09-19T07:33:30;96637.31;;;18.82;100.00
70954;BME280;58618;47.490;8.736;2023-09-19T07:36:17;96645.84;;;19.36;100.00
70954;BME280;58618;47.490;8.736;2023-09-19T07:39:04;96645.09;;;19.24;100.00
70954;BME280;58618;47.490;8.736;2023-09-19T07:41:54;96638.94;;;19.20;100.00
70954;BME280;58618;47.490;8.736;2023-09-19T07:44:41;96646.91;;;19.56;100.00
70954;BME280;58618;47.490;8.736;2023-09-19T07:47:28;96651.59;;;19.63;100.00
70954;BME280;58618;47.490;8.736;2023-09-19T07:50:19;96649.19;;;19.13;100.00
70954;BME280;58618;47.490;8.736;2023-09-19T07:53:06;96650.72;;;19.14;100.00
70954;BME280;58618;47.490;8.736;2023-09-19T07:56:01;96662.28;;;19.25;100.00
70954;BME280;58618;47.490;8.736;2023-09-19T07:58:51;96667.59;;;19.49;100.00
70954;BME280;58618;47.490;8.736;2023-09-19T08:01:39;96671.81;;;19.41;100.00
70954;BME280;58618;47.490;8.736;2023-09-19T08:04:27;96680.03;;;20.25;100.00
70954;BME280;58618;47.490;8.736;2023-09-19T08:07:16;96672.44;;;20.08;100.00
70954;BME280;58618;47.490;8.736;2023-09-19T08:10:05;96675.47;;;20.22;100.00
70954;BME280;58618;47.490;8.736;2023-09-19T08:12:53;96678.09;;;19.73;100.00
70954;BME280;58618;47.490;8.736;2023-09-19T08:15:45;96681.38;;;19.70;100.00
70954;BME280;58618;47.490;8.736;2023-09-19T08:18:32;96686.34;;;19.51;100.00
70954;BME280;58618;47.490;8.736;2023-09-19T08:21:20;96686.31;;;19.39;100.00
70954;BME280;58618;47.490;8.736;2023-09-19T08:24:07;96684.31;;;19.24;100.00
70954;BME280;58618;47.490;8.736;2023-09-19T08:26:55;96690.22;;;19.33;100.00
70954;BME280;58618;47.490;8.736;2023-09-19T08:29:42;96688.88;;;19.60;100.00
70954;BME280;58618;47.490;8.736;2023-09-19T08:32:32;96683.00;;;19.30;100.00
70954;BME280;58618;47.490;8.736;2023-09-19T08:35:19;96696.09;;;19.30;100.00
70954;BME280;58618;47.490;8.736;2023-09-19T08:38:06;96694.69;;;18.99;100.00
70954;BME280;58618;47.490;8.736;2023-09-19T08:40:54;96692.78;;;19.21;100.00
70954;BME280;58618;47.490;8.736;2023-09-19T08:43:41;96699.41;;;19.39;100.00
70954;BME280;58618;47.490;8.736;2023-09-19T08:46:30;96691.97;;;19.41;100.00
70954;BME280;58618;47.490;8.736;2023-09-19T08:49:26;96683.56;;;19.35;100.00
70954;BME280;58618;47.490;8.736;2023-09-19T08:52:23;96698.28;;;19.73;100.00
70954;BME280;58618;47.490;8.736;2023-09-19T08:55:13;96705.91;;;19.78;100.00
70954;BME280;58618;47.490;8.736;2023-09-19T08:58:10;96702.75;;;20.21;100.00
70954;BME280;58618;47.490;8.736;2023-09-19T09:01:00;96702.53;;;20.50;100.00
70954;BME280;58618;47.490;8.736;2023-09-19T09:03:48;96701.88;;;20.41;100.00
70954;BME280;58618;47.490;8.736;2023-09-19T09:06:38;96705.47;;;20.89;100.00
70954;BME280;58618;47.490;8.736;2023-09-19T09:09:28;96703.56;;;20.74;100.00
70954;BME280;58618;47.490;8.736;2023-09-19T09:12:16;96707.13;;;20.17;100.00
70954;BME280;58618;47.490;8.736;2023-09-19T09:15:04;96709.28;;;19.66;100.00
70954;BME280;58618;47.490;8.736;2023-09-19T09:17:53;96719.13;;;19.94;100.00
70954;BME280;58618;47.490;8.736;2023-09-19T09:20:40;96714.63;;;19.70;100.00
70954;BME280;58618;47.490;8.736;2023-09-19T09:23:31;96717.69;;;19.72;100.00
70954;BME280;58618;47.490;8.736;2023-09-19T09:26:40;96714.97;;;20.05;100.00
70954;BME280;58618;47.490;8.736;2023-09-19T09:29:42;96718.69;;;19.92;100.00
70954;BME280;58618;47.490;8.736;2023-09-19T09:32:30;96721.25;;;19.22;100.00
70954;BME280;58618;47.490;8.736;2023-09-19T09:35:20;96718.19;;;19.53;100.00
70954;BME280;58618;47.490;8.736;2023-09-19T09:38:07;96713.47;;;20.04;100.00
70954;BME280;58618;47.490;8.736;2023-09-19T09:40:57;96729.16;;;19.79;100.00
70954;BME280;58618;47.490;8.736;2023-09-19T09:43:53;96711.09;;;19.09;100.00
70954;BME280;58618;47.490;8.736;2023-09-19T09:46:43;96717.69;;;19.60;100.00
70954;BME280;58618;47.490;8.736;2023-09-19T09:49:47;96712.38;;;20.17;100.00
70954;BME280;58618;47.490;8.736;2023-09-19T09:52:46;96718.72;;;20.04;100.00
70954;BME280;58618;47.490;8.736;2023-09-19T09:55:58;96712.25;;;20.38;100.00
70954;BME280;58618;47.490;8.736;2023-09-19T09:58:50;96706.03;;;20.42;100.00
70954;BME280;58618;47.490;8.736;2023-09-19T10:01:46;96711.19;;;20.79;100.00
70954;BME280;58618;47.490;8.736;2023-09-19T10:04:34;96706.53;;;21.00;100.00
70954;BME280;58618;47.490;8.736;2023-09-19T10:07:31;96699.91;;;21.46;100.00
70954;BME280;58618;47.490;8.736;2023-09-19T10:10:31;96698.03;;;21.94;100.00
70954;BME280;58618;47.490;8.736;2023-09-19T10:13:40;96699.19;;;21.33;100.00
70954;BME280;58618;47.490;8.736;2023-09-19T10:16:30;96697.34;;;21.34;100.00
70954;BME280;58618;47.490;8.736;2023-09-19T10:19:27;96707.09;;;21.49;100.00
70954;BME280;58618;47.490;8.736;2023-09-19T10:22:16;96707.66;;;20.99;100.00
70954;BME280;58618;47.490;8.736;2023-09-19T10:25:08;96685.66;;;20.63;100.00
70954;BME280;58618;47.490;8.736;2023-09-19T10:27:56;96697.31;;;21.06;100.00
70954;BME280;58618;47.490;8.736;2023-09-19T10:30:49;96691.75;;;20.03;100.00
70954;BME280;58618;47.490;8.736;2023-09-19T10:33:38;96695.06;;;20.64;100.00
70954;BME280;58618;47.490;8.736;2023-09-19T10:36:32;96699.00;;;20.71;100.00
70954;BME280;58618;47.490;8.736;2023-09-19T10:39:21;96697.09;;;21.11;100.00
70954;BME280;58618;47.490;8.736;2023-09-19T10:42:11;96694.72;;;21.49;100.00
70954;BME280;58618;47.490;8.736;2023-09-19T10:45:04;96699.63;;;21.35;100.00
70954;BME280;58618;47.490;8.736;2023-09-19T10:48:01;96701.75;;;21.45;100.00
70954;BME280;58618;47.490;8.736;2023-09-19T10:50:52;96695.75;;;21.45;100.00
70954;BME280;58618;47.490;8.736;2023-09-19T10:53:45;96694.56;;;21.58;100.00
70954;BME280;58618;47.490;8.736;2023-09-19T10:56:36;96688.06;;;21.83;100.00
70954;BME280;58618;47.490;8.736;2023-09-19T10:59:25;96697.28;;;21.62;100.00
70954;BME280;58618;47.490;8.736;2023-09-19T11:02:20;96681.47;;;20.87;100.00
70954;BME280;58618;47.490;8.736;2023-09-19T11:05:14;96689.06;;;20.64;100.00
70954;BME280;58618;47.490;8.736;2023-09-19T11:08:02;96691.25;;;21.45;100.00
70954;BME280;58618;47.490;8.736;2023-09-19T11:10:51;96679.78;;;21.22;100.00
70954;BME280;58618;47.490;8.736;2023-09-19T11:13:38;96682.88;;;21.12;100.00
70954;BME280;58618;47.490;8.736;2023-09-19T11:16:27;96675.84;;;21.60;100.00
70954;BME280;58618;47.490;8.736;2023-09-19T11:19:15;96670.53;;;21.56;100.00
70954;BME280;58618;47.490;8.736;2023-09-19T11:22:04;96675.25;;;22.13;100.00
70954;BME280;58618;47.490;8.736;2023-09-19T11:24:56;96653.16;;;21.83;100.00
70954;BME280;58618;47.490;8.736;2023-09-19T11:28:34;96674.31;;;21.59;100.00
70954;BME280;58618;47.490;8.736;2023-09-19T11:31:52;96659.50;;;21.51;100.00
70954;BME280;58618;47.490;8.736;2023-09-19T11:34:46;96665.84;;;21.65;100.00
70954;BME280;58618;47.490;8.736;2023-09-19T11:38:01;96666.00;;;21.25;100.00
70954;BME280;58618;47.490;8.736;2023-09-19T11:41:37;96666.03;;;21.57;100.00
70954;BME280;58618;47.490;8.736;2023-09-19T11:44:34;96656.56;;;21.68;100.00
70954;BME280;58618;47.490;8.736;2023-09-19T11:47:27;96654.31;;;22.01;100.00
70954;BME280;58618;47.490;8.736;2023-09-19T11:50:17;96647.72;;;21.44;100.00
70954;BME280;58618;47.490;8.736;2023-09-19T11:53:08;96649.69;;;21.04;100.00
70954;BME280;58618;47.490;8.736;2023-09-19T11:55:58;96649.25;;;21.02;100.00
70954;BME280;58618;47.490;8.736;2023-09-19T11:58:49;96652.44;;;20.67;100.00
70954;BME280;58618;47.490;8.736;2023-09-19T12:01:43;96643.53;;;20.84;100.00
70954;BME280;58618;47.490;8.736;2023-09-19T12:04:41;96645.06;;;20.57;100.00
70954;BME280;58618;47.490;8.736;2023-09-19T12:07:42;96650.56;;;20.80;100.00
70954;BME280;58618;47.490;8.736;2023-09-19T12:10:31;96647.72;;;21.44;100.00
70954;BME280;58618;47.490;8.736;2023-09-19T12:13:18;96642.38;;;21.88;100.00
70954;BME280;58618;47.490;8.736;2023-09-19T12:16:11;96638.31;;;21.28;100.00
70954;BME280;58618;47.490;8.736;2023-09-19T12:19:19;96639.44;;;21.42;100.00
70954;BME280;58618;47.490;8.736;2023-09-19T12:22:08;96634.13;;;20.83;100.00
70954;BME280;58618;47.490;8.736;2023-09-19T12:25:05;96635.22;;;20.67;100.00
70954;BME280;58618;47.490;8.736;2023-09-19T12:27:54;96631.94;;;20.57;100.00
70954;BME280;58618;47.490;8.736;2023-09-19T12:30:44;96620.78;;;20.73;100.00
70954;BME280;58618;47.490;8.736;2023-09-19T12:33:31;96623.19;;;20.65;100.00
70954;BME280;58618;47.490;8.736;2023-09-19T12:36:21;96617.31;;;20.84;100.00
70954;BME280;58618;47.490;8.736;2023-09-19T12:39:23;96615.34;;;21.09;100.00
70954;BME280;58618;47.490;8.736;2023-09-19T12:42:12;96607.25;;;21.14;100.00
70954;BME280;58618;47.490;8.736;2023-09-19T12:45:07;96610.94;;;21.13;100.00
70954;BME280;58618;47.490;8.736;2023-09-19T12:48:17;96605.22;;;21.23;100.00
70954;BME280;58618;47.490;8.736;2023-09-19T12:51:07;96595.28;;;21.01;100.00
70954;BME280;58618;47.490;8.736;2023-09-19T12:53:57;96586.91;;;21.11;100.00
70954;BME280;58618;47.490;8.736;2023-09-19T12:56:45;96583.50;;;21.11;100.00
70954;BME280;58618;47.490;8.736;2023-09-19T12:59:36;96576.50;;;20.99;100.00
70954;BME280;58618;47.490;8.736;2023-09-19T13:02:25;96572.59;;;20.93;100.00
70954;BME280;58618;47.490;8.736;2023-09-19T13:05:14;96576.38;;;21.23;100.00
70954;BME280;58618;47.490;8.736;2023-09-19T13:08:17;96562.81;;;21.37;100.00
70954;BME280;58618;47.490;8.736;2023-09-19T13:11:07;96569.84;;;21.48;100.00
70954;BME280;58618;47.490;8.736;2023-09-19T13:14:15;96563.25;;;21.23;100.00
70954;BME280;58618;47.490;8.736;2023-09-19T13:17:04;96563.44;;;21.30;100.00
70954;BME280;58618;47.490;8.736;2023-09-19T13:19:53;96561.56;;;21.46;100.00
70954;BME280;58618;47.490;8.736;2023-09-19T13:22:44;96553.19;;;21.76;100.00
70954;BME280;58618;47.490;8.736;2023-09-19T13:25:35;96558.59;;;21.83;100.00
70954;BME280;58618;47.490;8.736;2023-09-19T13:28:26;96554.72;;;22.12;100.00
70954;BME280;58618;47.490;8.736;2023-09-19T13:31:15;96553.13;;;22.26;100.00
70954;BME280;58618;47.490;8.736;2023-09-19T13:34:02;96562.47;;;21.89;100.00
70954;BME280;58618;47.490;8.736;2023-09-19T13:36:51;96548.47;;;21.66;100.00
70954;BME280;58618;47.490;8.736;2023-09-19T13:39:38;96540.72;;;21.88;100.00
70954;BME280;58618;47.490;8.736;2023-09-19T13:42:28;96555.00;;;21.91;100.00
70954;BME280;58618;47.490;8.736;2023-09-19T13:45:16;96541.09;;;22.06;100.00
70954;BME280;58618;47.490;8.736;2023-09-19T13:48:08;96544.06;;;22.05;100.00
70954;BME280;58618;47.490;8.736;2023-09-19T13:50:57;96531.28;;;22.03;100.00
70954;BME280;58618;47.490;8.736;2023-09-19T13:53:45;96537.28;;;22.04;100.00
70954;BME280;58618;47.490;8.736;2023-09-19T13:56:33;96534.09;;;21.95;100.00
70954;BME280;58618;47.490;8.736;2023-09-19T13:59:23;96525.88;;;21.96;99.78
70954;BME280;58618;47.490;8.736;2023-09-19T14:02:11;96525.41;;;21.75;100.00
70954;BME280;58618;47.490;8.736;2023-09-19T14:05:00;96517.84;;;21.38;100.00
70954;BME280;58618;47.490;8.736;2023-09-19T14:07:47;96523.44;;;21.37;100.00
70954;BME280;58618;47.490;8.736;2023-09-19T14:10:36;96522.09;;;21.43;100.00
70954;BME280;58618;47.490;8.736;2023-09-19T14:13:23;96512.19;;;21.36;100.00
70954;BME280;58618;47.490;8.736;2023-09-19T14:16:11;96508.34;;;21.49;100.00
70954;BME280;58618;47.490;8.736;2023-09-19T14:18:59;96499.22;;;21.94;100.00
70954;BME280;58618;47.490;8.736;2023-09-19T14:21:46;96493.41;;;22.04;100.00
70954;BME280;58618;47.490;8.736;2023-09-19T14:24:33;96501.19;;;22.01;100.00
70954;BME280;58618;47.490;8.736;2023-09-19T14:27:22;96500.44;;;22.00;96.92
70954;BME280;58618;47.490;8.736;2023-09-19T14:30:12;96490.63;;;21.97;100.00
70954;BME280;58618;47.490;8.736;2023-09-19T14:32:59;96488.34;;;21.96;100.00
70954;BME280;58618;47.490;8.736;2023-09-19T14:35:47;96481.63;;;21.98;93.71
70954;BME280;58618;47.490;8.736;2023-09-19T14:38:34;96482.56;;;21.71;100.00
70954;BME280;58618;47.490;8.736;2023-09-19T14:41:22;96473.59;;;21.72;100.00
70954;BME280;58618;47.490;8.736;2023-09-19T14:44:12;96480.88;;;21.63;100.00
70954;BME280;58618;47.490;8.736;2023-09-19T14:47:02;96477.44;;;21.59;100.00
70954;BME280;58618;47.490;8.736;2023-09-19T14:49:50;96472.03;;;21.52;100.00
70954;BME280;58618;47.490;8.736;2023-09-19T14:52:38;96471.50;;;21.62;100.00